createdAt,value
2023-01-08T00:01:08.026Z,3.70
2023-01-08T00:03:35.235Z,2.60
2023-01-08T00:06:04.250Z,3.97
2023-01-08T00:08:32.106Z,4.43
2023-01-08T00:10:59.355Z,2.63
2023-01-08T00:13:26.739Z,3.93
2023-01-08T00:15:54.066Z,4.57
2023-01-08T00:18:21.048Z,3.33
2023-01-08T00:20:49.125Z,4.27
2023-01-08T00:23:18.784Z,3.53
2023-01-08T00:25:46.047Z,3.20
2023-01-08T00:28:15.090Z,3.60
2023-01-08T00:30:42.310Z,3.70
2023-01-08T00:33:10.047Z,3.70
2023-01-08T00:35:40.553Z,4.20
2023-01-08T00:38:07.793Z,3.47
2023-01-08T00:40:36.078Z,3.63
2023-01-08T00:43:03.329Z,3.30
2023-01-08T00:45:30.220Z,5.63
2023-01-08T00:47:57.354Z,5.93
2023-01-08T00:50:24.527Z,3.63
2023-01-08T00:52:51.303Z,4.17
2023-01-08T00:55:18.488Z,3.00
2023-01-08T00:57:45.458Z,2.77
2023-01-08T01:00:15.000Z,2.90
2023-01-08T01:02:41.994Z,3.30
2023-01-08T01:05:10.021Z,4.43
2023-01-08T01:07:37.147Z,3.60
2023-01-08T01:10:04.075Z,3.40
2023-01-08T01:12:30.892Z,4.83
2023-01-08T01:14:57.614Z,2.87
2023-01-08T01:17:24.532Z,5.37
2023-01-08T01:19:51.375Z,4.90
2023-01-08T01:22:18.173Z,2.73
2023-01-08T01:24:45.052Z,4.77
2023-01-08T01:27:11.889Z,3.90
2023-01-08T01:29:38.698Z,3.23
2023-01-08T01:32:06.257Z,4.63
2023-01-08T01:34:33.191Z,4.67
2023-01-08T01:36:59.965Z,3.43
2023-01-08T01:39:26.761Z,3.63
2023-01-08T01:41:53.666Z,3.63
2023-01-08T01:44:39.650Z,4.73
2023-01-08T01:47:13.568Z,3.47
2023-01-08T01:49:43.832Z,4.17
2023-01-08T01:52:12.158Z,4.27
2023-01-08T01:54:39.206Z,4.27
2023-01-08T01:57:08.460Z,3.63
2023-01-08T01:59:35.271Z,3.60
2023-01-08T02:02:02.672Z,3.40
2023-01-08T02:04:29.508Z,3.40
2023-01-08T02:07:06.161Z,4.13
2023-01-08T02:09:48.308Z,3.57
2023-01-08T02:12:50.814Z,4.67
2023-01-08T02:15:47.334Z,4.67
2023-01-08T02:18:20.146Z,4.83
2023-01-08T02:20:52.651Z,7.70
2023-01-08T02:24:03.257Z,4.53
2023-01-08T02:26:32.298Z,3.53
2023-01-08T02:29:04.936Z,3.70
2023-01-08T02:31:33.602Z,3.53
2023-01-08T02:34:00.268Z,7.07
2023-01-08T02:36:43.693Z,4.03
2023-01-08T02:39:51.874Z,3.57
2023-01-08T02:42:36.731Z,5.10
2023-01-08T02:45:18.635Z,3.57
2023-01-08T02:47:50.550Z,4.33
2023-01-08T02:50:25.271Z,4.57
2023-01-08T02:53:11.486Z,5.23
2023-01-08T02:55:41.488Z,4.57
2023-01-08T02:58:09.134Z,3.93
2023-01-08T03:00:37.072Z,4.33
2023-01-08T03:03:14.541Z,5.57
2023-01-08T03:05:43.631Z,5.43
2023-01-08T03:08:12.568Z,5.83
2023-01-08T03:10:42.203Z,4.87
2023-01-08T03:13:17.190Z,5.67
2023-01-08T03:15:50.742Z,3.83
2023-01-08T03:18:24.468Z,4.37
2023-01-08T03:20:51.484Z,3.50
2023-01-08T03:23:20.007Z,5.17
2023-01-08T03:25:48.526Z,3.50
2023-01-08T03:28:23.987Z,3.67
2023-01-08T03:30:53.247Z,4.47
2023-01-08T03:33:20.315Z,5.30
2023-01-08T03:35:50.194Z,3.57
2023-01-08T03:38:29.502Z,4.07
2023-01-08T03:41:01.022Z,3.93
2023-01-08T03:43:29.206Z,4.17
2023-01-08T03:46:00.626Z,3.90
2023-01-08T03:48:33.117Z,4.50
2023-01-08T03:51:00.171Z,5.33
2023-01-08T03:53:27.866Z,5.53
2023-01-08T03:55:54.938Z,3.80
2023-01-08T03:58:21.535Z,4.03
2023-01-08T04:00:48.237Z,4.30
2023-01-08T04:03:14.895Z,4.40
2023-01-08T04:05:41.725Z,3.90
2023-01-08T04:08:08.437Z,4.20
2023-01-08T04:10:35.225Z,4.03
2023-01-08T04:13:01.948Z,5.33
2023-01-08T04:15:28.881Z,5.97
2023-01-08T04:17:55.619Z,5.93
2023-01-08T04:20:22.285Z,3.77
2023-01-08T04:22:49.066Z,6.33
2023-01-08T04:25:15.788Z,5.23
2023-01-08T04:27:42.435Z,7.80
2023-01-08T04:30:09.889Z,4.17
2023-01-08T04:32:36.541Z,3.90
2023-01-08T04:35:04.044Z,8.57
2023-01-08T04:37:30.703Z,10.33
2023-01-08T04:39:57.559Z,7.20
2023-01-08T04:42:24.339Z,6.93
2023-01-08T04:44:50.960Z,4.77
2023-01-08T04:47:17.595Z,6.23
2023-01-08T04:49:44.396Z,4.33
2023-01-08T04:52:11.100Z,6.13
2023-01-08T04:54:37.777Z,6.87
2023-01-08T04:57:04.557Z,4.67
2023-01-08T04:59:31.274Z,7.87
2023-01-08T05:01:59.161Z,5.17
2023-01-08T05:04:25.881Z,4.03
2023-01-08T05:06:52.651Z,5.20
2023-01-08T05:09:19.361Z,5.60
2023-01-08T05:11:46.008Z,4.43
2023-01-08T05:14:12.812Z,4.33
2023-01-08T05:16:39.620Z,7.23
2023-01-08T05:19:06.369Z,4.53
2023-01-08T05:21:33.179Z,8.30
2023-01-08T05:23:59.837Z,6.90
2023-01-08T05:26:26.910Z,4.37
2023-01-08T05:28:53.784Z,5.23
2023-01-08T05:31:20.561Z,7.50
2023-01-08T05:33:48.111Z,4.63
2023-01-08T05:36:15.002Z,4.63
2023-01-08T05:38:41.755Z,4.70
2023-01-08T05:41:09.740Z,7.00
2023-01-08T05:43:37.157Z,5.17
2023-01-08T05:46:04.629Z,4.53
2023-01-08T05:48:33.519Z,4.67
2023-01-08T05:51:00.339Z,4.97
2023-01-08T05:53:27.184Z,5.97
2023-01-08T05:56:02.055Z,5.93
2023-01-08T05:58:28.903Z,6.37
2023-01-08T06:01:02.416Z,5.47
2023-01-08T06:03:29.201Z,5.37
2023-01-08T06:06:03.528Z,5.00
2023-01-08T06:08:31.007Z,5.20
2023-01-08T06:11:06.546Z,5.27
2023-01-08T06:13:34.640Z,6.17
2023-01-08T06:16:02.507Z,4.43
2023-01-08T06:18:30.138Z,4.80
2023-01-08T06:20:57.007Z,5.60
2023-01-08T06:23:23.762Z,5.77
2023-01-08T06:25:57.892Z,5.47
2023-01-08T06:28:24.979Z,6.00
2023-01-08T06:30:52.467Z,7.70
2023-01-08T06:33:21.409Z,6.77
2023-01-08T06:35:48.636Z,6.20
2023-01-08T06:38:15.578Z,5.60
2023-01-08T06:40:42.243Z,5.70
2023-01-08T06:43:08.915Z,4.00
2023-01-08T06:45:35.591Z,4.60
2023-01-08T06:48:04.422Z,6.33
2023-01-08T06:50:32.363Z,5.83
2023-01-08T06:52:59.099Z,6.00
2023-01-08T06:55:26.523Z,7.47
2023-01-08T06:57:55.095Z,8.93
2023-01-08T07:00:23.925Z,5.27
2023-01-08T07:02:51.670Z,5.77
2023-01-08T07:05:18.839Z,5.27
2023-01-08T07:07:45.789Z,7.27
2023-01-08T07:10:12.782Z,4.83
2023-01-08T07:12:39.543Z,7.63
2023-01-08T07:15:06.797Z,5.27
2023-01-08T07:17:33.632Z,4.20
2023-01-08T07:20:00.368Z,5.33
2023-01-08T07:22:28.240Z,6.10
2023-01-08T07:24:54.979Z,7.07
2023-01-08T07:27:21.774Z,6.90
2023-01-08T07:29:48.446Z,5.67
2023-01-08T07:32:15.555Z,6.17
2023-01-08T07:34:42.274Z,5.70
2023-01-08T07:37:09.003Z,7.30
2023-01-08T07:39:35.666Z,5.33
2023-01-08T07:42:02.403Z,4.53
2023-01-08T07:44:29.085Z,5.77
2023-01-08T07:46:55.916Z,4.50
2023-01-08T07:49:22.677Z,4.53
2023-01-08T07:51:50.057Z,5.37
2023-01-08T07:54:16.837Z,6.93
2023-01-08T07:56:44.292Z,7.50
2023-01-08T07:59:10.979Z,5.73
2023-01-08T08:01:37.860Z,4.50
2023-01-08T08:04:04.755Z,5.60
2023-01-08T08:06:31.465Z,5.30
2023-01-08T08:09:00.074Z,7.53
2023-01-08T08:11:27.052Z,6.10
2023-01-08T08:13:55.929Z,7.07
2023-01-08T08:16:23.455Z,5.10
2023-01-08T08:18:51.578Z,6.17
2023-01-08T08:21:18.194Z,5.03
2023-01-08T08:23:44.998Z,4.97
2023-01-08T08:26:11.745Z,6.40
2023-01-08T08:28:38.428Z,5.73
2023-01-08T08:31:05.295Z,5.97
2023-01-08T08:33:53.688Z,7.67
2023-01-08T08:36:20.404Z,4.60
2023-01-08T08:38:47.043Z,5.80
2023-01-08T08:41:13.758Z,7.10
2023-01-08T08:43:40.457Z,4.53
2023-01-08T08:46:07.127Z,8.23
2023-01-08T08:48:33.876Z,8.80
2023-01-08T08:51:00.599Z,7.13
2023-01-08T08:53:27.820Z,5.20
2023-01-08T08:55:54.623Z,6.20
2023-01-08T08:58:21.440Z,5.93
2023-01-08T09:00:48.159Z,5.03
2023-01-08T09:03:15.927Z,7.20
2023-01-08T09:05:43.306Z,5.57
2023-01-08T09:08:10.492Z,6.07
2023-01-08T09:10:42.420Z,9.50
2023-01-08T09:13:09.960Z,8.47
2023-01-08T09:15:38.055Z,11.43
2023-01-08T09:18:05.100Z,8.77
2023-01-08T09:20:31.937Z,6.23
2023-01-08T09:23:04.453Z,6.83
2023-01-08T09:25:31.245Z,5.97
2023-01-08T09:28:02.056Z,6.77
2023-01-08T09:30:29.742Z,7.27
2023-01-08T09:32:59.274Z,14.93
2023-01-08T09:35:27.612Z,5.50
2023-01-08T09:37:55.795Z,9.13
2023-01-08T09:40:26.470Z,10.37
2023-01-08T09:43:00.401Z,10.43
2023-01-08T09:45:30.685Z,7.87
2023-01-08T09:48:00.591Z,8.60
2023-01-08T09:50:29.357Z,5.37
2023-01-08T09:52:57.039Z,8.53
2023-01-08T09:55:23.926Z,5.50
2023-01-08T09:57:51.101Z,6.57
2023-01-08T10:00:23.675Z,9.40
2023-01-08T10:02:52.420Z,10.47
2023-01-08T10:05:19.171Z,24.77
2023-01-08T10:07:46.973Z,26.40
2023-01-08T10:10:31.722Z,10.23
2023-01-08T10:12:58.585Z,8.23
2023-01-08T10:15:26.061Z,9.27
2023-01-08T10:18:00.871Z,7.27
2023-01-08T10:20:29.651Z,6.73
2023-01-08T10:22:57.241Z,8.40
2023-01-08T10:25:27.049Z,6.47
2023-01-08T10:28:02.427Z,6.67
2023-01-08T10:30:34.778Z,9.00
2023-01-08T10:33:10.752Z,6.20
2023-01-08T10:35:42.765Z,7.80
2023-01-08T10:38:43.418Z,7.63
2023-01-08T10:41:13.893Z,8.97
2023-01-08T10:44:00.503Z,8.63
2023-01-08T10:46:36.591Z,11.03
2023-01-08T10:49:06.641Z,9.27
2023-01-08T10:51:33.856Z,15.00
2023-01-08T10:54:21.132Z,10.23
2023-01-08T10:56:48.022Z,5.13
2023-01-08T10:59:23.118Z,9.93
2023-01-08T11:01:52.840Z,10.63
2023-01-08T11:04:27.913Z,6.87
2023-01-08T11:06:59.796Z,9.37
2023-01-08T11:09:53.822Z,9.00
2023-01-08T11:12:38.873Z,7.37
2023-01-08T11:15:15.446Z,9.33
2023-01-08T11:17:42.165Z,8.47
2023-01-08T11:20:31.112Z,6.27
2023-01-08T11:23:25.231Z,9.47
2023-01-08T11:26:14.434Z,8.17
2023-01-08T11:29:06.099Z,7.97
2023-01-08T11:31:51.984Z,7.93
2023-01-08T11:34:28.660Z,8.57
2023-01-08T11:37:14.240Z,7.40
2023-01-08T11:39:41.075Z,7.27
2023-01-08T11:42:26.560Z,8.23
2023-01-08T11:45:20.413Z,6.30
2023-01-08T11:48:14.518Z,5.77
2023-01-08T11:50:54.280Z,7.90
2023-01-08T11:53:36.107Z,7.27
2023-01-08T11:56:20.601Z,7.20
2023-01-08T11:58:58.052Z,7.30
2023-01-08T12:01:30.469Z,5.30
2023-01-08T12:04:25.220Z,5.40
2023-01-08T12:07:25.258Z,6.23
2023-01-08T12:10:04.535Z,5.33
2023-01-08T12:12:59.132Z,7.00
2023-01-08T12:15:31.867Z,4.40
2023-01-08T12:18:18.651Z,7.93
2023-01-08T12:20:54.359Z,7.00
2023-01-08T12:23:39.220Z,8.60
2023-01-08T12:26:05.745Z,5.70
2023-01-08T12:28:57.083Z,5.57
2023-01-08T12:31:32.618Z,6.20
2023-01-08T12:34:13.645Z,3.90
2023-01-08T12:36:45.985Z,4.83
2023-01-08T12:39:27.881Z,5.80
2023-01-08T12:42:08.718Z,6.23
2023-01-08T12:44:37.461Z,5.57
2023-01-08T12:47:06.914Z,4.40
2023-01-08T12:49:43.249Z,4.30
2023-01-08T12:52:30.953Z,5.77
2023-01-08T12:55:13.864Z,3.67
2023-01-08T12:57:56.594Z,3.17
2023-01-08T13:00:39.590Z,4.73
2023-01-08T13:03:15.040Z,6.93
2023-01-08T13:05:43.637Z,5.03
2023-01-08T13:08:30.310Z,5.13
2023-01-08T13:10:57.334Z,5.20
2023-01-08T13:13:30.677Z,4.93
2023-01-08T13:16:20.381Z,5.77
2023-01-08T13:19:01.983Z,3.87
2023-01-08T13:21:41.718Z,3.83
2023-01-08T13:24:35.471Z,6.13
2023-01-08T13:27:14.418Z,3.57
2023-01-08T13:29:46.274Z,6.97
2023-01-08T13:32:47.285Z,4.20
2023-01-08T13:35:17.092Z,6.33
2023-01-08T13:37:45.938Z,8.40
2023-01-08T13:40:43.581Z,4.97
2023-01-08T13:43:40.112Z,5.57
2023-01-08T13:46:15.532Z,5.27
2023-01-08T13:49:09.164Z,4.30
2023-01-08T13:51:41.527Z,5.57
2023-01-08T13:54:17.066Z,3.70
2023-01-08T13:56:46.517Z,6.03
2023-01-08T13:59:33.041Z,4.20
2023-01-08T14:02:01.466Z,6.93
2023-01-08T14:04:28.561Z,3.23
2023-01-08T14:07:14.870Z,8.80
2023-01-08T14:09:41.531Z,4.10
2023-01-08T14:12:14.366Z,3.00
2023-01-08T14:14:47.098Z,8.37
2023-01-08T14:17:16.850Z,3.90
2023-01-08T14:19:44.988Z,7.10
2023-01-08T14:22:36.054Z,7.33
2023-01-08T14:25:06.435Z,3.50
2023-01-08T14:27:37.240Z,7.33
2023-01-08T14:30:15.990Z,4.63
2023-01-08T14:32:45.245Z,3.57
2023-01-08T14:35:16.502Z,8.20
2023-01-08T14:37:43.363Z,6.63
2023-01-08T14:40:17.294Z,4.33
2023-01-08T14:42:47.301Z,3.57
2023-01-08T14:45:43.340Z,2.90
2023-01-08T14:48:40.659Z,5.97
2023-01-08T14:51:13.871Z,6.20
2023-01-08T14:54:02.555Z,3.60
2023-01-08T14:56:36.072Z,5.03
2023-01-08T14:59:12.553Z,3.63
2023-01-08T15:01:39.717Z,6.67
2023-01-08T15:04:18.992Z,7.37
2023-01-08T15:06:46.409Z,8.27
2023-01-08T15:09:29.145Z,7.60
2023-01-08T15:12:07.376Z,5.33
2023-01-08T15:14:37.691Z,10.83
2023-01-08T15:17:15.532Z,10.20
2023-01-08T15:19:48.478Z,10.43
2023-01-08T15:22:20.321Z,7.30
2023-01-08T15:25:03.150Z,8.50
2023-01-08T15:27:36.998Z,7.03
2023-01-08T15:30:05.447Z,17.20
2023-01-08T15:32:34.849Z,9.50
2023-01-08T15:35:02.090Z,5.40
2023-01-08T15:37:30.435Z,4.57
2023-01-08T15:39:57.183Z,7.87
2023-01-08T15:42:51.139Z,5.67
2023-01-08T15:45:31.909Z,7.27
2023-01-08T15:47:58.733Z,6.40
2023-01-08T15:50:27.071Z,4.47
2023-01-08T15:52:54.230Z,5.30
2023-01-08T15:55:23.514Z,6.13
2023-01-08T15:57:51.141Z,5.07
2023-01-08T16:00:20.238Z,3.20
2023-01-08T16:02:49.303Z,6.17
2023-01-08T16:05:19.929Z,3.17
2023-01-08T16:07:47.203Z,4.83
2023-01-08T16:10:15.472Z,6.17
2023-01-08T16:12:45.536Z,6.67
2023-01-08T16:15:13.419Z,12.80
2023-01-08T16:17:40.317Z,17.27
2023-01-08T16:20:08.166Z,24.17
2023-01-08T16:22:35.061Z,24.90
2023-01-08T16:25:01.941Z,17.43
2023-01-08T16:27:30.820Z,12.37
2023-01-08T16:29:58.508Z,14.83
2023-01-08T16:32:25.303Z,12.07
2023-01-08T16:34:52.052Z,16.00
2023-01-08T16:37:18.797Z,23.77
2023-01-08T16:39:45.484Z,13.00
2023-01-08T16:42:12.479Z,8.37
2023-01-08T16:44:39.517Z,6.07
2023-01-08T16:47:06.229Z,5.30
2023-01-08T16:49:33.581Z,4.40
2023-01-08T16:52:00.962Z,6.63
2023-01-08T16:54:27.986Z,7.03
2023-01-08T16:56:58.098Z,5.77
2023-01-08T16:59:26.003Z,5.17
2023-01-08T17:01:53.294Z,8.93
2023-01-08T17:04:20.542Z,6.97
2023-01-08T17:06:47.521Z,7.13
2023-01-08T17:09:14.831Z,6.47
2023-01-08T17:11:42.451Z,6.70
2023-01-08T17:14:09.888Z,9.23
2023-01-08T17:16:36.949Z,5.30
2023-01-08T17:19:04.063Z,8.70
2023-01-08T17:21:30.815Z,5.03
2023-01-08T17:23:57.475Z,10.30
2023-01-08T17:26:24.214Z,5.90
2023-01-08T17:28:51.302Z,5.27
2023-01-08T17:31:20.218Z,5.27
2023-01-08T17:33:52.030Z,5.33
2023-01-08T17:36:25.344Z,11.20
2023-01-08T17:38:56.384Z,6.73
2023-01-08T17:41:41.507Z,7.37
2023-01-08T17:44:11.712Z,10.30
2023-01-08T17:46:42.344Z,8.07
2023-01-08T17:49:11.291Z,4.60
2023-01-08T17:51:40.708Z,5.70
2023-01-08T17:54:17.231Z,12.43
2023-01-08T17:56:44.473Z,9.47
2023-01-08T17:59:16.068Z,7.17
2023-01-08T18:01:45.193Z,9.97
2023-01-08T18:04:13.295Z,7.67
2023-01-08T18:06:40.469Z,8.87
2023-01-08T18:09:09.596Z,19.50
2023-01-08T18:11:36.393Z,22.37
2023-01-08T18:14:03.329Z,15.33
2023-01-08T18:16:32.333Z,6.60
2023-01-08T18:19:00.324Z,9.00
2023-01-08T18:21:27.873Z,11.73
2023-01-08T18:23:54.883Z,4.83
2023-01-08T18:26:22.924Z,5.37
2023-01-08T18:28:52.028Z,7.20
2023-01-08T18:31:19.193Z,5.17
2023-01-08T18:33:48.760Z,16.60
2023-01-08T18:36:15.522Z,25.93
2023-01-08T18:38:44.195Z,17.23
2023-01-08T18:41:36.675Z,12.67
2023-01-08T18:44:10.182Z,10.33
2023-01-08T18:46:37.833Z,9.93
2023-01-08T18:49:05.054Z,7.47
2023-01-08T18:51:32.454Z,7.43
2023-01-08T18:53:59.312Z,10.77
2023-01-08T18:56:32.093Z,9.83
2023-01-08T18:58:58.954Z,8.83
2023-01-08T19:01:26.719Z,11.33
2023-01-08T19:03:53.619Z,8.17
2023-01-08T19:06:20.731Z,11.50
2023-01-08T19:08:47.809Z,9.00
2023-01-08T19:11:15.074Z,10.47
2023-01-08T19:13:42.155Z,8.70
2023-01-08T19:16:12.215Z,11.17
2023-01-08T19:18:39.815Z,15.10
2023-01-08T19:21:08.105Z,10.57
2023-01-08T19:23:35.020Z,11.07
2023-01-08T19:26:06.661Z,16.60
2023-01-08T19:28:33.625Z,7.53
2023-01-08T19:31:01.333Z,8.90
2023-01-08T19:33:28.313Z,7.40
2023-01-08T19:35:54.996Z,6.27
2023-01-08T19:38:22.113Z,9.70
2023-01-08T19:40:48.894Z,11.20
2023-01-08T19:43:34.126Z,5.73
2023-01-08T19:46:06.119Z,7.10
2023-01-08T19:48:34.045Z,10.43
2023-01-08T19:51:09.136Z,10.97
2023-01-08T19:53:36.268Z,11.73
2023-01-08T19:56:12.629Z,8.47
2023-01-08T19:58:42.556Z,11.07
2023-01-08T20:01:14.706Z,9.67
2023-01-08T20:03:44.744Z,15.00
2023-01-08T20:06:16.352Z,8.60
2023-01-08T20:08:44.880Z,11.33
2023-01-08T20:11:15.668Z,16.17
2023-01-08T20:13:43.279Z,12.77
2023-01-08T20:16:13.660Z,10.30
2023-01-08T20:18:40.875Z,13.60
2023-01-08T20:21:07.525Z,13.90
2023-01-08T20:23:36.441Z,11.40
2023-01-08T20:26:08.925Z,11.20
2023-01-08T20:28:37.537Z,12.07
2023-01-08T20:31:08.690Z,11.20
2023-01-08T20:33:35.527Z,9.20
2023-01-08T20:36:07.519Z,7.77
2023-01-08T20:38:34.327Z,7.07
2023-01-08T20:41:01.064Z,9.30
2023-01-08T20:43:28.716Z,11.93
2023-01-08T20:45:55.557Z,9.30
2023-01-08T20:48:22.332Z,6.23
2023-01-08T20:51:00.362Z,7.67
2023-01-08T20:53:29.408Z,6.30
2023-01-08T20:56:07.775Z,10.00
2023-01-08T20:58:37.237Z,5.90
2023-01-08T21:01:09.791Z,4.87
2023-01-08T21:03:37.432Z,12.90
2023-01-08T21:06:13.724Z,7.37
2023-01-08T21:08:41.715Z,9.73
2023-01-08T21:11:10.091Z,8.73
2023-01-08T21:13:37.760Z,16.10
2023-01-08T21:16:08.207Z,10.80
2023-01-08T21:18:35.409Z,15.83
2023-01-08T21:21:04.527Z,11.27
2023-01-08T21:23:33.430Z,7.27
2023-01-08T21:26:03.224Z,12.43
2023-01-08T21:28:29.974Z,18.53
2023-01-08T21:31:05.575Z,7.60
2023-01-08T21:33:33.065Z,7.73
2023-01-08T21:36:07.653Z,5.23
2023-01-08T21:38:35.315Z,5.17
2023-01-08T21:41:06.591Z,7.07
2023-01-08T21:43:52.201Z,7.13
2023-01-08T21:46:20.275Z,5.43
2023-01-08T21:48:51.618Z,7.73
2023-01-08T21:51:36.903Z,4.20
2023-01-08T21:54:04.409Z,6.43
2023-01-08T21:56:31.412Z,6.17
2023-01-08T21:58:58.177Z,6.03
2023-01-08T22:01:24.973Z,3.70
2023-01-08T22:03:51.877Z,7.50
2023-01-08T22:06:18.666Z,7.00
2023-01-08T22:08:50.198Z,7.10
2023-01-08T22:11:16.943Z,7.90
2023-01-08T22:13:43.656Z,4.23
2023-01-08T22:16:10.861Z,5.13
2023-01-08T22:18:38.042Z,10.27
2023-01-08T22:21:10.429Z,8.57
2023-01-08T22:23:37.863Z,4.70
2023-01-08T22:26:10.266Z,6.77
2023-01-08T22:28:40.387Z,6.43
2023-01-08T22:31:09.010Z,7.23
2023-01-08T22:33:36.863Z,5.53
2023-01-08T22:36:04.537Z,9.53
2023-01-08T22:38:31.517Z,5.80
2023-01-08T22:40:58.269Z,8.07
2023-01-08T22:43:25.037Z,6.60
2023-01-08T22:45:56.370Z,8.17
2023-01-08T22:48:23.785Z,7.13
2023-01-08T22:50:53.918Z,14.30
2023-01-08T22:53:20.815Z,10.13
2023-01-08T22:55:48.521Z,6.53
2023-01-08T22:58:16.367Z,11.30
2023-01-08T23:00:43.813Z,8.27
2023-01-08T23:03:11.380Z,7.57
2023-01-08T23:05:38.104Z,12.67
2023-01-08T23:08:05.740Z,7.30
2023-01-08T23:10:32.960Z,8.20
2023-01-08T23:13:00.330Z,5.30
2023-01-08T23:15:27.100Z,5.80
2023-01-08T23:17:53.961Z,4.43
2023-01-08T23:20:23.314Z,7.47
2023-01-08T23:22:50.212Z,6.43
2023-01-08T23:25:17.101Z,7.20
2023-01-08T23:27:44.908Z,5.80
2023-01-08T23:30:12.491Z,5.60
2023-01-08T23:32:39.908Z,5.80
2023-01-08T23:35:06.868Z,5.67
2023-01-08T23:37:34.382Z,4.23
2023-01-08T23:40:01.154Z,10.97
2023-01-08T23:42:29.774Z,3.40
2023-01-08T23:44:56.696Z,6.97
2023-01-08T23:47:23.763Z,3.97
2023-01-08T23:49:50.493Z,5.00
2023-01-08T23:52:17.147Z,4.10
2023-01-08T23:54:43.902Z,5.93
2023-01-08T23:57:10.714Z,4.40
2023-01-08T23:59:37.435Z,6.67
